Airfield :







YOU CAN JOIN US ON...

 
LOGIN :

Register | Disclaimer

   EN    FR    IT 

 









Legend :    VFR   Marginal VFR   IFR   Intensive IFR   Very Intensive IFR
Visi :
Ceiling :
>= 8 km
>= 3000ft
5 to 8 km
1000 to 3000 ft
1500m to 5 km
500 to 1000 ft
800 to 1500m
200 to 500 ft
< 800m
< 200 ft
Symbols :   Thunderstorms  Fog  Heavy snow  Heavy precipitations  Wind > 20 kt






- Airport Elevation : 133 ft
- IATA code : BED


KBED - Laurence G Hanscom Field

CURRENT METAR :
  • 171751Z 32017KT 10SM CLR M06/M23 A3050 RMK AO2 SLP346 T10561233 11056 21100 58003

EXPIRED METARs :
  • 171651Z 32015G24KT 10SM CLR M07/M24 A3052 RMK AO2 PK WND 32030/1625 SLP354 T10721244
  • 171551Z 32016G24KT 10SM CLR M08/M23 A3053 RMK AO2 PK WND 31026/1525 SLP357 T10781233

TAF KBED
Valid from the 17 at 18:00 until the 18 at 18:00 UTC


171720Z 1718/1818 32014G25KT P6SM SKC
FM172200 31011G20KT P6SM SKC
FM180000 32009KT P6SM SKC
FM181000 30003KT P6SM SCT200
FM181100 00000KT P6SM BKN200
FM181700 18003KT P6SM OVC090



MET'MAP, your aeronautical weather chart ! - Copyright ORBIFLY December 2007 - Disclaimer

ORBIFLY MET'MAP TEAM :

Programming & Development : Alexandra Zaïnal
Concept & original design : Baudouin d'Aumeries
Assistance for programming : Marc-Olivier Méhu
Technical & hardware support : Manuel Goepfert

Contact : metmap@orbifly.com




SOURCES & CREDITS :

   NOAA